Time;durP1;ratioP1;P1;durP2;ratioP2;P2;SDS_P1;SDS_P2;PMS_P1;PMS_P2;Temp;Humidity;BMP_temperature;BMP_pressure;BME280_temperature;BME280_humidity;BME280_pressure;Samples;Min_cycle;Max_cycle;Signal;HPM_P1;HPM_P2
2022/02/27 00:00:23;;;;;;;;;9.00;9.00;;;;;9.02;44.23;102082.69;2130264;27;47980;-52
2022/02/27 00:01:24;;;;;;;;;8.50;8.50;;;;;9.02;44.40;102085.34;2121241;27;47260;-51
2022/02/27 00:02:24;;;;;;;;;7.00;7.00;;;;;9.01;44.50;102084.44;2121233;27;47052;-53
2022/02/27 00:03:25;;;;;;;;;11.25;9.75;;;;;9.01;44.32;102081.78;2121877;27;47987;-51
2022/02/27 00:04:25;;;;;;;;;9.75;9.75;;;;;9.01;44.35;102080.91;2121315;27;47521;-55
2022/02/27 00:05:26;;;;;;;;;9.60;9.60;;;;;9.01;44.59;102078.25;2127361;27;47405;-53
2022/02/27 00:06:26;;;;;;;;;8.25;8.25;;;;;9.01;44.48;102076.50;2122961;27;48092;-54
2022/02/27 00:07:27;;;;;;;;;10.50;10.50;;;;;9.01;44.66;102088.84;2120540;27;47473;-52
2022/02/27 00:08:27;;;;;;;;;9.25;9.25;;;;;9.01;44.57;102083.56;2112530;27;47838;-54
2022/02/27 00:09:29;;;;;;;;;10.00;8.25;;;;;8.99;44.41;102088.84;2112251;27;47193;-55
2022/02/27 00:10:30;;;;;;;;;10.00;10.00;;;;;8.99;44.41;102086.19;2121433;27;47898;-55
2022/02/27 00:11:32;;;;;;;;;8.25;8.25;;;;;8.99;44.35;102080.91;2121341;27;47269;-53
2022/02/27 00:12:32;;;;;;;;;7.40;7.20;;;;;8.99;44.29;102078.25;2121446;27;47689;-56
2022/02/27 00:13:33;;;;;;;;;8.00;8.00;;;;;9.00;44.49;102081.78;2121112;27;48067;-54
2022/02/27 00:14:33;;;;;;;;;6.75;4.50;;;;;8.99;44.51;102086.19;2121448;27;47573;-54
2022/02/27 00:15:34;;;;;;;;;8.50;8.50;;;;;8.99;44.26;102087.97;2121432;27;47795;-53
2022/02/27 00:16:34;;;;;;;;;6.75;6.75;;;;;8.96;44.37;102086.19;2121953;27;47465;-53
2022/02/27 00:17:38;;;;;;;;;6.00;6.00;;;;;8.96;44.32;102087.94;2121099;27;47502;-52
2022/02/27 00:18:39;;;;;;;;;8.20;6.40;;;;;8.96;44.43;102087.94;2122853;27;47734;-53
2022/02/27 00:19:39;;;;;;;;;8.50;8.50;;;;;8.96;44.52;102086.19;2126963;27;47698;-55
2022/02/27 00:20:40;;;;;;;;;12.50;12.50;;;;;8.96;44.28;102085.31;2121803;27;47755;-51
2022/02/27 00:21:42;;;;;;;;;8.75;8.75;;;;;8.94;44.34;102087.94;2122704;27;47396;-54
2022/02/27 00:22:42;;;;;;;;;7.60;7.60;;;;;8.93;44.34;102080.88;2123259;27;47418;-54
2022/02/27 00:23:42;;;;;;;;;11.25;10.00;;;;;8.93;44.40;102080.00;2122940;27;47384;-52
2022/02/27 00:24:43;;;;;;;;;5.75;5.75;;;;;8.92;44.65;102091.47;2129348;27;47486;-55
2022/02/27 00:25:43;;;;;;;;;10.00;10.00;;;;;8.92;44.58;102099.41;2131886;27;47478;-52
2022/02/27 00:26:44;;;;;;;;;8.00;8.00;;;;;8.92;44.25;102095.00;2131681;27;47032;-55
2022/02/27 00:27:44;;;;;;;;;11.00;9.00;;;;;8.92;44.70;102089.69;2101710;28;47497;-53
2022/02/27 00:28:45;;;;;;;;;11.00;11.00;;;;;8.93;44.46;102093.22;2096257;28;47396;-52
2022/02/27 00:29:45;;;;;;;;;12.50;11.00;;;;;8.93;44.55;102082.66;2122938;27;47507;-55
2022/02/27 00:30:46;;;;;;;;;9.25;8.50;;;;;8.94;44.57;102097.66;2123403;27;47597;-55
2022/02/27 00:31:46;;;;;;;;;8.25;8.25;;;;;8.94;44.52;102100.31;2124585;27;48118;-54
2022/02/27 00:32:47;;;;;;;;;7.25;7.25;;;;;8.94;44.74;102100.31;2108675;27;47957;-53
2022/02/27 00:33:47;;;;;;;;;7.00;7.00;;;;;8.94;44.42;102098.53;2104692;28;48194;-56
2022/02/27 00:34:48;;;;;;;;;9.00;9.00;;;;;8.94;44.41;102093.25;2130605;27;47883;-55
2022/02/27 00:35:48;;;;;;;;;10.25;9.75;;;;;8.95;44.29;102097.66;2129016;27;47340;-53
2022/02/27 00:36:51;;;;;;;;;9.00;8.75;;;;;8.94;44.48;102101.19;2123019;27;47465;-54
2022/02/27 00:37:51;;;;;;;;;8.00;8.00;;;;;8.95;44.49;102104.72;2122533;27;47084;-56
2022/02/27 00:38:52;;;;;;;;;11.25;11.25;;;;;8.94;44.57;102106.47;2122833;27;47126;-55
2022/02/27 00:39:53;;;;;;;;;10.20;10.20;;;;;8.94;44.67;102106.47;2122493;27;47635;-52
2022/02/27 00:40:53;;;;;;;;;10.50;9.00;;;;;8.94;44.63;102100.31;2122885;27;47396;-54
2022/02/27 00:41:54;;;;;;;;;10.00;9.75;;;;;8.94;44.55;102095.00;2122894;27;47261;-55
2022/02/27 00:42:54;;;;;;;;;10.50;9.50;;;;;8.94;44.48;102095.88;2122685;27;47448;-54
2022/02/27 00:43:54;;;;;;;;;12.50;9.75;;;;;8.93;44.46;102096.78;2122824;27;47978;-53
2022/02/27 00:44:55;;;;;;;;;10.00;7.50;;;;;8.94;44.80;102095.88;2122682;27;47722;-52
2022/02/27 00:45:55;;;;;;;;;10.00;10.00;;;;;8.94;44.50;102087.06;2120254;27;48311;-56
2022/02/27 00:46:55;;;;;;;;;7.00;7.00;;;;;8.92;44.50;102094.13;2122175;27;47620;-54
2022/02/27 00:47:56;;;;;;;;;8.00;6.25;;;;;8.91;44.51;102085.28;2131741;27;48318;-52
2022/02/27 00:48:56;;;;;;;;;7.50;7.00;;;;;8.91;44.39;102090.59;2126743;27;47780;-54
2022/02/27 00:49:57;;;;;;;;;11.50;10.75;;;;;8.92;44.33;102091.47;2123122;27;47946;-50
2022/02/27 00:50:57;;;;;;;;;8.25;7.75;;;;;8.91;44.40;102098.53;2122466;27;47377;-54
2022/02/27 00:51:58;;;;;;;;;6.75;6.00;;;;;8.91;44.45;102090.59;2122727;27;47782;-53
2022/02/27 00:52:58;;;;;;;;;7.50;7.50;;;;;8.91;44.68;102085.28;2102420;28;47382;-52
2022/02/27 00:53:59;;;;;;;;;8.25;7.50;;;;;8.90;44.69;102096.75;2104431;28;47413;-51
2022/02/27 00:54:59;;;;;;;;;12.50;12.00;;;;;8.91;44.51;102089.69;2122330;27;47866;-55
2022/02/27 00:55:59;;;;;;;;;10.75;9.75;;;;;8.91;44.53;102089.69;2127386;27;47639;-51
2022/02/27 00:57:00;;;;;;;;;9.75;8.25;;;;;8.91;44.69;102093.22;2131485;27;47580;-51
2022/02/27 00:58:01;;;;;;;;;9.75;9.75;;;;;8.90;44.50;102095.88;2131541;27;47792;-50
2022/02/27 00:59:02;;;;;;;;;11.00;11.00;;;;;8.90;44.46;102094.09;2130844;27;47619;-50
2022/02/27 01:00:07;;;;;;;;;8.00;6.40;;;;;8.90;44.36;102093.22;2131616;27;47733;-53
2022/02/27 01:01:07;;;;;;;;;8.60;8.60;;;;;8.90;44.53;102103.81;2131013;27;47898;-54
2022/02/27 01:02:08;;;;;;;;;7.00;7.00;;;;;8.90;44.32;102095.88;2125877;27;47914;-51
2022/02/27 01:03:09;;;;;;;;;8.50;8.50;;;;;8.89;44.27;102099.34;2122768;27;48088;-55
2022/02/27 01:04:09;;;;;;;;;9.40;8.60;;;;;8.88;44.38;102092.28;2128160;27;47428;-53
2022/02/27 01:05:10;;;;;;;;;8.25;7.00;;;;;8.88;44.41;102094.94;2127555;27;46396;-53
2022/02/27 01:06:11;;;;;;;;;8.25;7.00;;;;;8.87;44.59;102094.06;2122551;27;48109;-54
2022/02/27 01:07:11;;;;;;;;;9.00;9.00;;;;;8.86;44.55;102089.63;2122723;27;47860;-51
2022/02/27 01:08:11;;;;;;;;;9.00;9.00;;;;;8.86;44.48;102094.94;2122548;27;47793;-54
2022/02/27 01:09:12;;;;;;;;;7.25;7.25;;;;;8.86;44.48;102094.94;2122511;27;47772;-52
2022/02/27 01:10:12;;;;;;;;;11.00;10.00;;;;;8.86;44.42;102100.22;2122329;27;47795;-53
2022/02/27 01:11:13;;;;;;;;;7.50;7.00;;;;;8.85;44.54;102095.81;2122329;27;47763;-52
2022/02/27 01:12:13;;;;;;;;;8.75;8.75;;;;;8.85;44.57;102095.81;2122732;27;47679;-53
2022/02/27 01:13:14;;;;;;;;;8.75;8.75;;;;;8.84;44.42;102096.69;2122929;27;47285;-52
2022/02/27 01:14:14;;;;;;;;;9.00;9.00;;;;;8.85;44.61;102098.47;2123207;27;47501;-52
2022/02/27 01:15:14;;;;;;;;;10.75;10.00;;;;;8.84;44.31;102092.28;2122927;27;47495;-51
2022/02/27 01:16:15;;;;;;;;;12.25;9.25;;;;;8.84;44.44;102091.41;2119716;27;45758;-51
2022/02/27 01:17:16;;;;;;;;;6.50;6.50;;;;;8.83;44.42;102089.63;2122805;27;46257;-50
2022/02/27 01:18:16;;;;;;;;;6.00;6.00;;;;;8.82;44.60;102095.78;2122510;27;46388;-52
2022/02/27 01:19:17;;;;;;;;;8.25;6.75;;;;;8.83;44.47;102094.91;2122426;27;48418;-53
2022/02/27 01:20:17;;;;;;;;;9.50;7.75;;;;;8.83;44.65;102097.56;2122436;27;47475;-52
2022/02/27 01:21:18;;;;;;;;;8.00;6.25;;;;;8.83;44.64;102090.50;2130334;27;47569;-53
2022/02/27 01:22:18;;;;;;;;;8.25;7.00;;;;;8.81;44.45;102097.56;2125496;27;47367;-52
2022/02/27 01:23:19;;;;;;;;;10.25;8.75;;;;;8.81;44.39;102094.03;2131196;27;47589;-52
2022/02/27 01:24:19;;;;;;;;;7.50;7.50;;;;;8.80;44.59;102103.72;2128780;27;46350;-54
2022/02/27 01:25:20;;;;;;;;;9.50;7.00;;;;;8.79;44.47;102091.38;2129825;27;47498;-51
2022/02/27 01:26:20;;;;;;;;;6.75;6.25;;;;;8.79;44.39;102093.13;2122727;27;45885;-54
2022/02/27 01:27:21;;;;;;;;;7.25;7.25;;;;;8.77;44.56;102093.13;2122792;27;47476;-53
2022/02/27 01:28:21;;;;;;;;;10.75;9.50;;;;;8.76;44.45;102093.97;2122258;27;47849;-51
2022/02/27 01:29:22;;;;;;;;;7.75;7.75;;;;;8.77;44.66;102087.84;2122429;27;47607;-54
2022/02/27 01:30:22;;;;;;;;;6.00;6.00;;;;;8.77;44.42;102084.31;2116055;27;47591;-51
2022/02/27 01:31:23;;;;;;;;;9.50;9.50;;;;;8.77;44.85;102079.00;2121898;27;47201;-51
2022/02/27 01:32:23;;;;;;;;;9.75;9.75;;;;;8.78;44.54;102081.66;2130821;27;47158;-52
2022/02/27 01:33:23;;;;;;;;;6.50;5.00;;;;;8.76;44.43;102080.75;2130008;27;46808;-50
2022/02/27 01:34:24;;;;;;;;;7.00;7.00;;;;;8.74;44.48;102076.31;2122647;27;47833;-51
2022/02/27 01:35:24;;;;;;;;;8.75;8.75;;;;;8.74;44.50;102085.13;2126609;27;47554;-53
2022/02/27 01:36:25;;;;;;;;;8.00;8.00;;;;;8.72;44.60;102078.06;2131210;27;47831;-50
2022/02/27 01:37:25;;;;;;;;;9.50;8.75;;;;;8.72;44.58;102073.66;2123462;27;47365;-54
2022/02/27 01:38:26;;;;;;;;;8.25;8.25;;;;;8.72;44.74;102081.59;2125035;27;47139;-51
2022/02/27 01:39:27;;;;;;;;;10.20;8.20;;;;;8.72;44.76;102081.59;2131338;27;47858;-53
2022/02/27 01:40:27;;;;;;;;;7.25;6.50;;;;;8.71;44.85;102077.19;2124355;27;47409;-54
2022/02/27 01:41:27;;;;;;;;;11.00;11.00;;;;;8.74;44.94;102086.91;2122271;27;47522;-52
2022/02/27 01:42:28;;;;;;;;;9.00;9.00;;;;;8.72;44.62;102081.59;2129966;27;47472;-50
2022/02/27 01:43:28;;;;;;;;;7.75;7.00;;;;;8.71;44.80;102077.19;2128588;27;48138;-52
2022/02/27 01:44:29;;;;;;;;;11.25;9.25;;;;;8.70;44.77;102077.19;2113211;27;46826;-53
2022/02/27 01:45:29;;;;;;;;;9.50;9.50;;;;;8.70;44.74;102074.53;2119263;27;46971;-52
2022/02/27 01:46:30;;;;;;;;;9.00;7.75;;;;;8.69;44.63;102078.94;2130432;27;47443;-52
2022/02/27 01:47:31;;;;;;;;;9.25;9.25;;;;;8.69;44.75;102076.28;2113367;27;47161;-50
2022/02/27 01:48:31;;;;;;;;;7.40;7.40;;;;;8.68;44.59;102063.94;2113143;27;47415;-52
2022/02/27 01:49:32;;;;;;;;;7.00;7.00;;;;;8.68;44.67;102071.00;2122911;27;48066;-51
2022/02/27 01:50:32;;;;;;;;;10.00;9.00;;;;;8.66;44.87;102070.97;2130110;27;47716;-52
2022/02/27 01:51:32;;;;;;;;;10.50;9.50;;;;;8.66;44.82;102065.69;2130737;27;47168;-55
2022/02/27 01:52:33;;;;;;;;;11.50;10.00;;;;;8.66;44.77;102064.81;2130860;27;48100;-50
2022/02/27 01:53:33;;;;;;;;;7.50;7.00;;;;;8.64;44.74;102063.88;2130712;27;48190;-50
2022/02/27 01:54:34;;;;;;;;;10.75;8.75;;;;;8.63;44.45;102065.63;2131185;27;47273;-51
2022/02/27 01:55:35;;;;;;;;;10.60;6.80;;;;;8.63;44.73;102064.75;2131112;27;46969;-51
2022/02/27 01:56:36;;;;;;;;;8.75;7.00;;;;;8.63;44.68;102064.75;2130813;27;47743;-50
2022/02/27 01:57:37;;;;;;;;;9.20;7.80;;;;;8.62;44.63;102069.16;2131068;27;47605;-51
2022/02/27 01:58:37;;;;;;;;;5.50;5.50;;;;;8.62;44.83;102066.50;2130742;27;47942;-52
2022/02/27 01:59:38;;;;;;;;;7.00;7.00;;;;;8.62;44.50;102061.22;2130647;27;47642;-54
2022/02/27 02:00:39;;;;;;;;;11.80;9.60;;;;;8.61;44.73;102070.03;2130990;27;47725;-50
2022/02/27 02:01:40;;;;;;;;;8.50;8.50;;;;;8.60;44.71;102057.69;2130789;27;47679;-51
2022/02/27 02:02:45;;;;;;;;;9.20;9.20;;;;;8.61;44.63;102066.50;2130841;27;47242;-52
2022/02/27 02:03:45;;;;;;;;;8.40;7.80;;;;;8.60;44.80;102062.97;2130487;27;47778;-50
2022/02/27 02:04:46;;;;;;;;;9.75;7.50;;;;;8.59;44.84;102061.22;2131080;27;47879;-53
2022/02/27 02:05:46;;;;;;;;;13.50;11.00;;;;;8.59;44.94;102065.63;2113144;27;47684;-51
2022/02/27 02:06:47;;;;;;;;;9.00;9.00;;;;;8.59;44.95;102062.97;2121703;27;47320;-53
2022/02/27 02:07:47;;;;;;;;;7.00;6.75;;;;;8.59;44.97;102058.56;2127177;27;47689;-54
2022/02/27 02:08:48;;;;;;;;;7.25;7.00;;;;;8.58;44.65;102062.09;2122445;27;47596;-50
2022/02/27 02:09:48;;;;;;;;;8.00;8.00;;;;;8.58;44.97;102062.09;2122101;27;48017;-53
2022/02/27 02:10:49;;;;;;;;;6.25;6.25;;;;;8.58;44.89;102064.72;2122286;27;47954;-52
2022/02/27 02:11:49;;;;;;;;;6.50;6.50;;;;;8.57;44.83;102060.31;2122115;27;46647;-50
2022/02/27 02:12:50;;;;;;;;;6.00;6.00;;;;;8.57;44.73;102055.03;2122233;27;47330;-53
2022/02/27 02:13:51;;;;;;;;;8.75;7.25;;;;;8.57;44.67;102062.06;2122285;27;47673;-52
2022/02/27 02:14:51;;;;;;;;;7.00;7.00;;;;;8.55;44.73;102059.41;2122166;27;48178;-49
2022/02/27 02:15:58;;;;;;;;;7.25;7.00;;;;;8.54;44.66;102052.38;2122159;27;47303;-53
2022/02/27 02:16:59;;;;;;;;;8.60;6.40;;;;;8.52;44.83;102054.13;2122342;27;47513;-49
2022/02/27 02:17:59;;;;;;;;;7.00;7.00;;;;;8.52;44.81;102051.47;2120982;27;47418;-51
2022/02/27 02:19:00;;;;;;;;;9.75;8.00;;;;;8.50;44.81;102051.44;2114797;27;47380;-50
2022/02/27 02:20:00;;;;;;;;;6.25;6.25;;;;;8.49;44.77;102051.41;2123320;27;48057;-50
2022/02/27 02:21:00;;;;;;;;;6.00;5.00;;;;;8.50;44.75;102053.19;2103799;28;47797;-48
2022/02/27 02:22:04;;;;;;;;;10.75;10.75;;;;;8.49;44.90;102054.94;2098909;28;48311;-51
2022/02/27 02:23:04;;;;;;;;;12.20;7.80;;;;;8.48;44.85;102047.88;2104122;27;47782;-52
2022/02/27 02:24:05;;;;;;;;;12.25;10.25;;;;;8.48;44.97;102050.53;2112129;27;48296;-50
2022/02/27 02:25:07;;;;;;;;;7.25;7.25;;;;;8.46;44.81;102049.63;2126142;27;45207;-51
2022/02/27 02:26:08;;;;;;;;;9.00;9.00;;;;;8.46;44.86;102049.63;2130583;27;47580;-51
2022/02/27 02:27:09;;;;;;;;;5.60;5.60;;;;;8.45;44.76;102052.28;2130539;27;48091;-52
2022/02/27 02:28:10;;;;;;;;;9.25;7.00;;;;;8.44;44.72;102047.88;2130677;27;47505;-51
2022/02/27 02:29:13;;;;;;;;;8.50;8.50;;;;;8.43;44.52;102043.44;2130714;27;47579;-53
2022/02/27 02:30:13;;;;;;;;;9.40;6.00;;;;;8.42;44.91;102052.25;2124400;27;47914;-52
2022/02/27 02:31:14;;;;;;;;;9.00;9.00;;;;;8.40;44.62;102048.72;2122248;27;47856;-52
2022/02/27 02:32:14;;;;;;;;;6.00;4.75;;;;;8.38;44.43;102046.03;2122403;27;45662;-50
2022/02/27 02:33:15;;;;;;;;;8.50;6.75;;;;;8.38;44.84;102039.84;2122038;27;48005;-52
2022/02/27 02:34:21;;;;;;;;;9.50;9.50;;;;;8.36;44.42;102037.19;2122039;27;47603;-51
2022/02/27 02:35:23;;;;;;;;;9.40;7.60;;;;;8.37;44.78;102035.44;2121854;27;47679;-50
2022/02/27 02:36:23;;;;;;;;;6.40;6.00;;;;;8.37;44.87;102040.72;2116440;27;47506;-51
2022/02/27 02:37:23;;;;;;;;;8.50;7.00;;;;;8.36;44.63;102044.25;2121433;27;47466;-52
2022/02/27 02:38:26;;;;;;;;;6.25;6.25;;;;;8.34;44.85;102031.03;2130885;27;47718;-49
2022/02/27 02:39:28;;;;;;;;;7.60;7.60;;;;;8.31;44.97;102027.44;2130612;27;47496;-55
2022/02/27 02:40:29;;;;;;;;;10.00;10.00;;;;;8.31;44.93;102030.97;2130764;27;47387;-52
2022/02/27 02:41:29;;;;;;;;;6.75;5.75;;;;;8.31;44.84;102038.03;2130361;27;47691;-51
2022/02/27 02:42:30;;;;;;;;;6.00;5.75;;;;;8.29;44.81;102032.72;2130744;27;47552;-49
2022/02/27 02:43:30;;;;;;;;;7.25;5.00;;;;;8.29;44.78;102029.19;2129529;27;47558;-48
2022/02/27 02:44:31;;;;;;;;;9.75;9.75;;;;;8.29;44.93;102029.19;2130489;27;47606;-51
2022/02/27 02:45:31;;;;;;;;;1.00;1.00;;;;;8.29;45.14;102034.47;2130947;27;47554;-53
2022/02/27 02:46:35;;;;;;;;;6.75;6.75;;;;;8.29;44.98;102027.44;2130953;27;47902;-53
2022/02/27 02:47:40;;;;;;;;;8.20;6.80;;;;;8.28;44.96;102030.94;2130832;27;46708;-51
2022/02/27 02:48:40;;;;;;;;;10.40;7.40;;;;;8.26;44.94;102044.16;2124505;27;47443;-50
2022/02/27 02:49:40;;;;;;;;;7.50;7.00;;;;;8.26;44.85;102033.59;2121753;27;47246;-50
2022/02/27 02:50:41;;;;;;;;;7.50;7.00;;;;;8.26;44.76;102028.28;2121681;27;47425;-51
2022/02/27 02:51:42;;;;;;;;;7.00;6.00;;;;;8.26;44.97;102033.59;2121993;27;46366;-51
2022/02/27 02:52:43;;;;;;;;;5.60;4.60;;;;;8.25;44.98;102038.84;2121698;27;48096;-49
2022/02/27 02:53:43;;;;;;;;;5.75;5.00;;;;;8.23;44.82;102041.47;2122174;27;47051;-51
2022/02/27 02:54:44;;;;;;;;;9.00;8.50;;;;;8.22;44.83;102033.53;2122256;27;48000;-51
2022/02/27 02:55:44;;;;;;;;;10.50;9.50;;;;;8.23;44.86;102032.66;2121748;27;47554;-53
2022/02/27 02:56:44;;;;;;;;;6.50;6.50;;;;;8.22;44.72;102036.16;2112580;27;47431;-53
2022/02/27 02:57:45;;;;;;;;;11.00;9.25;;;;;8.21;44.81;102039.69;2112543;27;47107;-52
2022/02/27 02:58:46;;;;;;;;;5.60;5.60;;;;;8.20;44.89;102036.16;2122056;27;47326;-55
2022/02/27 02:59:46;;;;;;;;;7.50;7.50;;;;;8.19;44.90;102033.50;2121675;27;48149;-51
2022/02/27 03:00:47;;;;;;;;;6.00;6.00;;;;;8.18;44.99;102037.91;2121793;27;47786;-54
2022/02/27 03:01:47;;;;;;;;;5.75;5.75;;;;;8.19;44.89;102047.59;2122094;27;47881;-50
2022/02/27 03:02:48;;;;;;;;;7.25;7.25;;;;;8.17;44.97;102033.50;2129885;27;47560;-50
2022/02/27 03:03:50;;;;;;;;;8.75;6.50;;;;;8.19;45.09;102036.16;2130591;27;47247;-52
2022/02/27 03:04:50;;;;;;;;;8.60;7.00;;;;;8.17;44.95;102044.06;2124725;27;47861;-50
2022/02/27 03:05:51;;;;;;;;;7.00;6.00;;;;;8.17;45.03;102040.53;2128966;27;47586;-53
2022/02/27 03:06:51;;;;;;;;;4.75;4.75;;;;;8.18;44.95;102039.66;2121724;27;47533;-52
2022/02/27 03:07:51;;;;;;;;;5.75;5.25;;;;;8.19;45.07;102044.09;2126659;27;47663;-51
2022/02/27 03:08:52;;;;;;;;;4.00;4.00;;;;;8.19;45.02;102041.44;2130571;27;47984;-51
2022/02/27 03:09:52;;;;;;;;;6.00;5.75;;;;;8.19;45.02;102036.16;2130334;27;47936;-52
2022/02/27 03:10:53;;;;;;;;;5.25;5.25;;;;;8.19;45.11;102041.44;2130152;27;47918;-51
2022/02/27 03:11:53;;;;;;;;;5.75;5.50;;;;;8.19;44.98;102037.03;2130201;27;47382;-51
2022/02/27 03:12:54;;;;;;;;;7.00;6.00;;;;;8.19;45.04;102030.84;2130437;27;47696;-51
2022/02/27 03:14:00;;;;;;;;;9.25;6.00;;;;;8.18;45.00;102032.63;2130500;27;47877;-50
2022/02/27 03:15:02;;;;;;;;;7.20;5.00;;;;;8.18;45.00;102029.97;2130410;27;47861;-51
2022/02/27 03:16:03;;;;;;;;;6.00;6.00;;;;;8.18;44.98;102035.25;2120970;27;47710;-50
2022/02/27 03:17:03;;;;;;;;;5.00;5.00;;;;;8.16;45.14;102039.66;2121537;27;48211;-50
2022/02/27 03:18:04;;;;;;;;;9.50;8.25;;;;;8.15;44.97;102034.34;2124735;27;47650;-50
2022/02/27 03:19:05;;;;;;;;;6.50;6.50;;;;;8.14;45.24;102037.88;2130548;27;47170;-54
2022/02/27 03:20:06;;;;;;;;;10.00;10.00;;;;;8.13;45.15;102037.00;2123250;27;47552;-51
2022/02/27 03:21:06;;;;;;;;;7.00;5.00;;;;;8.13;45.07;102042.28;2121520;27;47798;-53
2022/02/27 03:22:07;;;;;;;;;4.00;4.00;;;;;8.10;45.09;102042.22;2121753;27;47552;-49
2022/02/27 03:23:08;;;;;;;;;6.00;6.00;;;;;8.10;45.19;102036.94;2098501;28;47783;-49
2022/02/27 03:24:08;;;;;;;;;6.00;5.75;;;;;8.10;45.10;102036.06;2098717;27;47952;-48
2022/02/27 03:25:08;;;;;;;;;6.00;6.00;;;;;8.10;45.00;102039.59;2130166;27;47611;-51
2022/02/27 03:26:09;;;;;;;;;8.50;8.50;;;;;8.09;45.06;102031.63;2126597;27;47797;-51
2022/02/27 03:27:10;;;;;;;;;5.00;5.00;;;;;8.09;45.28;102034.28;2121992;27;47317;-51
2022/02/27 03:28:10;;;;;;;;;9.75;8.75;;;;;8.09;45.38;102032.53;2121792;27;47661;-51
2022/02/27 03:29:11;;;;;;;;;9.50;6.00;;;;;8.08;45.02;102033.41;2121353;27;47288;-50
2022/02/27 03:30:11;;;;;;;;;6.50;6.50;;;;;8.07;45.20;102028.09;2121753;27;47865;-49
2022/02/27 03:31:12;;;;;;;;;7.75;6.50;;;;;8.05;45.24;102030.72;2126431;27;47610;-50
2022/02/27 03:32:12;;;;;;;;;4.75;4.75;;;;;8.04;45.20;102028.97;2125228;27;45139;-49
2022/02/27 03:33:13;;;;;;;;;7.25;5.25;;;;;8.03;45.18;102032.47;2121372;27;48061;-52
2022/02/27 03:34:14;;;;;;;;;10.00;9.00;;;;;8.03;45.33;102028.94;2098135;28;47780;-53
2022/02/27 03:35:19;;;;;;;;;6.20;6.20;;;;;8.03;45.18;102023.66;2103134;28;47993;-49
2022/02/27 03:36:19;;;;;;;;;6.00;6.00;;;;;8.01;45.09;102021.00;2129309;27;48065;-51
2022/02/27 03:37:20;;;;;;;;;5.75;5.75;;;;;8.00;45.02;102024.50;2130524;27;47960;-50
2022/02/27 03:38:20;;;;;;;;;5.25;5.25;;;;;8.00;45.16;102023.59;2121223;27;47718;-51
2022/02/27 03:39:21;;;;;;;;;5.50;5.50;;;;;7.98;45.27;102024.47;2115114;27;47747;-51
2022/02/27 03:40:21;;;;;;;;;9.50;9.00;;;;;7.99;45.19;102033.28;2121395;27;47334;-51
2022/02/27 03:41:22;;;;;;;;;6.00;6.00;;;;;7.99;45.37;102025.38;2121814;27;47542;-53
2022/02/27 03:42:22;;;;;;;;;6.25;6.00;;;;;7.99;45.28;102025.38;2125275;27;47117;-50
2022/02/27 03:43:22;;;;;;;;;7.25;5.50;;;;;7.98;45.18;102036.81;2130449;27;47836;-50
2022/02/27 03:44:23;;;;;;;;;4.25;4.00;;;;;7.96;45.17;102028.00;2123606;27;47374;-49
2022/02/27 03:45:23;;;;;;;;;4.00;4.00;;;;;7.93;45.35;102028.84;2121515;27;48073;-51
2022/02/27 03:46:24;;;;;;;;;6.00;6.00;;;;;7.91;45.29;102027.06;2121822;27;47966;-51
2022/02/27 03:47:24;;;;;;;;;5.00;5.00;;;;;7.90;45.35;102034.13;2121540;27;48187;-52
2022/02/27 03:48:24;;;;;;;;;10.00;7.00;;;;;7.91;45.60;102030.59;2122575;27;47420;-54
2022/02/27 03:49:25;;;;;;;;;6.50;6.50;;;;;7.91;45.38;102032.34;2121621;27;47532;-50
2022/02/27 03:50:25;;;;;;;;;7.00;7.00;;;;;7.89;45.45;102037.63;2121639;27;47633;-54
2022/02/27 03:51:26;;;;;;;;;5.75;5.75;;;;;7.89;45.38;102036.75;2121446;27;47299;-54
2022/02/27 03:52:26;;;;;;;;;4.25;4.25;;;;;7.89;45.28;102036.75;2121652;27;47175;-54
2022/02/27 03:53:26;;;;;;;;;8.00;8.00;;;;;7.87;45.40;102041.09;2122126;27;47760;-53
2022/02/27 03:54:27;;;;;;;;;6.00;5.75;;;;;7.86;45.63;102040.22;2121436;27;47738;-49
2022/02/27 03:55:27;;;;;;;;;10.25;9.00;;;;;7.86;45.55;102041.97;2121542;27;47575;-50
2022/02/27 03:56:28;;;;;;;;;6.00;6.00;;;;;7.85;45.45;102040.19;2121230;27;47162;-53
2022/02/27 03:57:28;;;;;;;;;8.75;8.00;;;;;7.84;45.54;102039.31;2121441;27;47623;-53
2022/02/27 03:58:29;;;;;;;;;6.50;6.00;;;;;7.83;45.58;102036.66;2103012;28;47519;-53
2022/02/27 03:59:29;;;;;;;;;5.00;5.00;;;;;7.84;45.42;102046.38;2108699;27;47487;-54
2022/02/27 04:00:30;;;;;;;;;7.00;5.00;;;;;7.83;45.47;102045.47;2129389;27;47727;-54
2022/02/27 04:01:30;;;;;;;;;6.50;5.75;;;;;7.83;45.59;102050.75;2121294;27;47809;-50
2022/02/27 04:02:31;;;;;;;;;5.00;5.00;;;;;7.86;45.46;102053.44;2125560;27;48020;-52
2022/02/27 04:03:31;;;;;;;;;8.00;7.00;;;;;7.85;45.64;102046.38;2130380;27;47473;-49
2022/02/27 04:04:32;;;;;;;;;6.50;5.25;;;;;7.86;45.45;102048.16;2130195;27;48054;-52
2022/02/27 04:05:32;;;;;;;;;5.25;5.00;;;;;7.85;45.72;102048.13;2123474;27;47423;-52
2022/02/27 04:06:33;;;;;;;;;5.00;5.00;;;;;7.85;45.49;102043.72;2121333;27;47481;-52
2022/02/27 04:07:33;;;;;;;;;6.00;6.00;;;;;7.84;45.28;102044.59;2121524;27;48212;-50
2022/02/27 04:08:34;;;;;;;;;6.75;6.75;;;;;7.84;45.48;102051.66;2121795;27;47444;-52
2022/02/27 04:09:34;;;;;;;;;6.75;4.75;;;;;7.83;45.60;102049.88;2121915;27;47856;-51
2022/02/27 04:10:34;;;;;;;;;7.25;5.00;;;;;7.83;45.59;102052.53;2121348;27;47621;-49
2022/02/27 04:11:35;;;;;;;;;4.50;4.50;;;;;7.83;45.57;102050.75;2121098;27;47432;-54
2022/02/27 04:12:35;;;;;;;;;6.75;4.25;;;;;7.84;45.40;102049.00;2112215;27;47727;-52
2022/02/27 04:13:36;;;;;;;;;5.75;5.75;;;;;7.83;45.61;102049.88;2120688;27;47911;-52
2022/02/27 04:14:37;;;;;;;;;3.25;3.25;;;;;7.82;45.55;102053.41;2130008;27;47554;-53
2022/02/27 04:15:37;;;;;;;;;6.50;6.50;;;;;7.81;45.70;102049.88;2130181;27;48094;-51
2022/02/27 04:16:38;;;;;;;;;5.75;5.75;;;;;7.81;45.51;102051.63;2103017;28;47692;-54
2022/02/27 04:17:39;;;;;;;;;8.80;8.80;;;;;7.79;45.90;102046.31;2102053;27;47937;-53
2022/02/27 04:18:40;;;;;;;;;6.50;6.50;;;;;7.80;45.59;102045.44;2121838;27;47938;-54
2022/02/27 04:19:40;;;;;;;;;8.60;7.40;;;;;7.78;45.50;102046.31;2124437;27;47235;-52
2022/02/27 04:20:41;;;;;;;;;6.00;6.00;;;;;7.76;45.64;102041.00;2121678;27;47365;-51
2022/02/27 04:21:42;;;;;;;;;6.00;6.00;;;;;7.76;45.72;102045.41;2121687;27;48283;-52
2022/02/27 04:22:44;;;;;;;;;6.80;6.80;;;;;7.74;45.69;102049.75;2121287;27;47355;-52
2022/02/27 04:23:45;;;;;;;;;6.40;6.40;;;;;7.74;45.82;102048.00;2121532;27;47642;-54
2022/02/27 04:24:45;;;;;;;;;6.00;6.00;;;;;7.74;45.82;102041.84;2127197;27;48022;-50
2022/02/27 04:25:46;;;;;;;;;6.00;5.75;;;;;7.72;45.71;102040.94;2128522;27;47598;-50
2022/02/27 04:26:46;;;;;;;;;5.00;5.00;;;;;7.70;45.83;102046.22;2120945;27;47292;-51
2022/02/27 04:27:46;;;;;;;;;4.25;4.25;;;;;7.69;45.74;102039.16;2099455;28;47896;-53
2022/02/27 04:28:47;;;;;;;;;6.25;5.75;;;;;7.66;45.66;102044.41;2103246;28;47909;-50
2022/02/27 04:29:48;;;;;;;;;5.00;5.00;;;;;7.67;45.72;102047.06;2121707;27;47800;-52
2022/02/27 04:30:48;;;;;;;;;4.00;4.00;;;;;7.66;45.90;102041.78;2124737;27;47936;-52
2022/02/27 04:31:49;;;;;;;;;7.75;7.75;;;;;7.65;46.00;102042.66;2127823;27;47230;-51
2022/02/27 04:32:49;;;;;;;;;8.50;6.50;;;;;7.65;46.07;102043.53;2121079;27;47480;-50
2022/02/27 04:33:50;;;;;;;;;5.00;5.00;;;;;7.64;45.83;102036.47;2121247;27;47380;-50
2022/02/27 04:34:50;;;;;;;;;8.50;5.50;;;;;7.65;45.71;102042.66;2121301;27;47251;-50
2022/02/27 04:35:51;;;;;;;;;7.50;7.50;;;;;7.63;45.74;102042.63;2120973;27;48027;-49
2022/02/27 04:36:51;;;;;;;;;5.00;5.00;;;;;7.62;45.80;102040.84;2121138;27;47526;-51
2022/02/27 04:37:51;;;;;;;;;6.00;5.50;;;;;7.63;45.86;102041.75;2112280;27;47860;-49
2022/02/27 04:38:52;;;;;;;;;6.75;5.75;;;;;7.63;45.76;102049.66;2115406;27;47544;-50
2022/02/27 04:39:52;;;;;;;;;5.25;5.25;;;;;7.62;45.98;102038.22;2123966;27;47803;-52
2022/02/27 04:40:53;;;;;;;;;4.50;4.00;;;;;7.62;45.92;102050.50;2121294;27;47901;-49
2022/02/27 04:41:53;;;;;;;;;6.00;5.00;;;;;7.61;45.89;102041.69;2121326;27;47503;-51
2022/02/27 04:42:53;;;;;;;;;6.50;6.50;;;;;7.60;45.96;102050.50;2121289;27;47860;-51
2022/02/27 04:43:54;;;;;;;;;5.50;5.00;;;;;7.60;46.16;102050.50;2121283;27;47346;-51
2022/02/27 04:44:54;;;;;;;;;4.25;4.25;;;;;7.59;46.03;102050.47;2121465;27;47583;-54